createdAt,value
2023-04-04T00:02:28.654Z,103063.59
2023-04-04T00:07:40.853Z,103056.06
2023-04-04T00:12:44.561Z,103056.81
2023-04-04T00:17:47.891Z,103054.81
2023-04-04T00:22:55.992Z,103043.91
2023-04-04T00:28:01.188Z,103055.34
2023-04-04T00:33:04.842Z,103047.66
2023-04-04T00:38:09.847Z,103051.03
2023-04-04T00:43:13.024Z,103051.91
2023-04-04T00:48:16.734Z,103027.97
2023-04-04T00:53:21.245Z,103029.50
2023-04-04T00:58:27.253Z,103039.47
2023-04-04T01:03:30.862Z,103017.84
2023-04-04T01:08:37.638Z,103016.25
2023-04-04T01:13:41.191Z,103021.84
2023-04-04T01:18:49.084Z,103013.03
2023-04-04T01:24:01.406Z,103030.72
2023-04-04T01:29:34.838Z,103035.69
2023-04-04T01:34:45.604Z,103029.22
2023-04-04T01:39:51.793Z,103028.16
2023-04-04T01:44:58.171Z,103006.34
2023-04-04T01:50:11.968Z,103012.63
2023-04-04T01:55:15.725Z,103012.34
2023-04-04T02:00:20.479Z,103038.09
2023-04-04T02:05:23.825Z,103042.00
2023-04-04T02:10:27.010Z,103040.56
2023-04-04T02:15:33.434Z,103044.09
2023-04-04T02:20:36.668Z,103041.56
2023-04-04T02:25:39.676Z,103038.47
2023-04-04T02:30:44.014Z,103042.72
2023-04-04T02:35:47.849Z,103030.94
2023-04-04T02:40:54.506Z,103041.19
2023-04-04T02:46:01.207Z,103033.31
2023-04-04T02:51:08.710Z,103037.56
2023-04-04T02:56:12.286Z,103030.78
2023-04-04T03:01:16.778Z,103035.19
2023-04-04T03:06:19.963Z,103033.03
2023-04-04T03:11:25.562Z,103027.16
2023-04-04T03:16:31.852Z,103018.56
2023-04-04T03:21:35.220Z,103000.09
2023-04-04T03:26:38.262Z,102998.25
2023-04-04T03:31:42.860Z,102982.44
2023-04-04T03:36:46.909Z,103004.38
2023-04-04T03:41:50.117Z,103004.03
2023-04-04T03:46:55.730Z,103012.00
2023-04-04T03:52:00.314Z,103012.06
2023-04-04T03:57:04.218Z,103013.22
2023-04-04T04:02:08.930Z,103002.19
2023-04-04T04:07:12.061Z,103011.59
2023-04-04T04:12:15.378Z,103018.06
2023-04-04T04:17:19.859Z,103009.06
2023-04-04T04:22:24.299Z,103012.53
2023-04-04T04:27:27.424Z,103014.81
2023-04-04T04:32:32.605Z,103014.63
2023-04-04T04:37:35.963Z,103022.00
2023-04-04T04:42:45.593Z,103026.81
2023-04-04T04:47:51.999Z,103034.22
2023-04-04T04:52:57.030Z,103037.38
2023-04-04T04:58:01.309Z,103033.69
2023-04-04T05:03:07.912Z,103025.44
2023-04-04T05:08:15.965Z,103028.19
2023-04-04T05:13:41.755Z,103034.84
2023-04-04T05:18:46.767Z,103041.84
2023-04-04T05:23:50.560Z,103043.53
2023-04-04T05:28:55.929Z,103053.44
2023-04-04T05:34:08.221Z,103043.66
2023-04-04T05:39:11.811Z,103048.28
2023-04-04T05:44:26.247Z,103041.03
2023-04-04T05:49:30.906Z,103039.88
2023-04-04T05:54:36.006Z,103036.34
2023-04-04T05:59:44.685Z,103027.91
2023-04-04T06:04:52.141Z,103035.72
2023-04-04T06:10:04.400Z,103046.03
2023-04-04T06:15:10.349Z,103057.81
2023-04-04T06:20:15.961Z,103057.59
2023-04-04T06:25:19.160Z,103042.59
2023-04-04T06:30:23.324Z,103040.13
2023-04-04T06:35:29.443Z,103039.19
2023-04-04T06:40:35.523Z,103038.22
2023-04-04T06:45:39.331Z,103036.72
2023-04-04T06:50:44.355Z,103048.44
2023-04-04T06:55:51.764Z,103061.88
2023-04-04T07:00:56.596Z,103054.81
2023-04-04T07:06:03.983Z,103058.41
2023-04-04T07:11:08.177Z,103046.72
2023-04-04T07:16:14.394Z,103055.63
2023-04-04T07:21:19.180Z,103074.09
2023-04-04T07:26:22.804Z,103056.47
2023-04-04T07:31:26.882Z,103068.94
2023-04-04T07:36:31.643Z,103051.34
2023-04-04T07:41:35.791Z,103066.94
2023-04-04T07:46:39.480Z,103060.97
2023-04-04T07:51:44.876Z,103062.41
2023-04-04T07:56:51.282Z,103037.41
2023-04-04T08:01:54.852Z,103036.09
2023-04-04T08:06:59.287Z,103042.44
2023-04-04T08:12:05.506Z,103052.03
2023-04-04T08:17:08.828Z,103042.91
2023-04-04T08:22:13.769Z,103033.81
2023-04-04T08:27:19.812Z,103042.81
2023-04-04T08:32:23.769Z,103049.63
2023-04-04T08:37:29.387Z,103043.44
2023-04-04T08:42:36.024Z,103042.50
2023-04-04T08:47:40.094Z,103046.19
2023-04-04T08:52:45.471Z,103037.66
2023-04-04T08:57:49.921Z,103038.91
2023-04-04T09:02:58.954Z,103044.38
2023-04-04T09:08:06.289Z,103035.81
2023-04-04T09:13:15.961Z,103029.47
2023-04-04T09:18:20.176Z,103026.13
2023-04-04T09:23:25.839Z,103027.03
2023-04-04T09:28:29.674Z,103020.63
2023-04-04T09:33:34.376Z,103009.72
2023-04-04T09:38:43.248Z,103028.44
2023-04-04T09:43:46.944Z,103023.31
2023-04-04T09:48:51.538Z,103010.03
2023-04-04T09:53:59.674Z,103014.69
2023-04-04T09:59:05.095Z,102999.66
2023-04-04T10:04:10.315Z,103005.19
2023-04-04T10:09:16.400Z,102997.13
2023-04-04T10:14:20.051Z,103002.84
2023-04-04T10:19:23.333Z,102991.66
2023-04-04T10:24:27.934Z,102997.50
2023-04-04T10:29:32.672Z,102997.06
2023-04-04T10:34:44.215Z,102997.28
2023-04-04T10:40:03.367Z,102985.16
2023-04-04T10:45:19.890Z,102983.28
2023-04-04T10:50:27.334Z,102983.72
2023-04-04T10:55:34.529Z,102975.41
2023-04-04T11:00:52.059Z,102964.47
2023-04-04T11:06:01.770Z,102962.44
2023-04-04T11:11:19.950Z,102961.00
2023-04-04T11:16:26.000Z,102946.06
2023-04-04T11:21:33.632Z,102951.44
2023-04-04T11:26:39.746Z,102946.22
2023-04-04T11:31:45.458Z,102942.59
2023-04-04T11:36:54.649Z,102940.09
2023-04-04T11:42:04.091Z,102930.06
2023-04-04T11:47:13.660Z,102930.63
2023-04-04T11:52:18.815Z,102927.84
2023-04-04T11:57:23.415Z,102915.38
2023-04-04T12:02:32.118Z,102916.22
2023-04-04T12:07:36.097Z,102910.56
2023-04-04T12:12:41.883Z,102897.47
2023-04-04T12:17:46.058Z,102876.00
2023-04-04T12:22:51.168Z,102890.22
2023-04-04T12:27:57.283Z,102873.13
2023-04-04T12:33:00.788Z,102890.13
2023-04-04T12:38:07.668Z,102865.94
2023-04-04T12:43:20.708Z,102861.69
2023-04-04T12:48:28.858Z,102857.47
2023-04-04T12:53:33.376Z,102855.00
2023-04-04T12:58:37.978Z,102848.63
2023-04-04T13:03:41.194Z,102839.81
2023-04-04T13:08:52.200Z,102837.19
2023-04-04T13:14:04.705Z,102832.47
2023-04-04T13:19:07.906Z,102827.28
2023-04-04T13:24:11.308Z,102819.81
2023-04-04T13:29:15.881Z,102811.72
2023-04-04T13:34:19.979Z,102804.75
2023-04-04T13:39:23.903Z,102790.84
2023-04-04T13:44:28.384Z,102789.53
2023-04-04T13:49:31.795Z,102784.78
2023-04-04T13:54:35.026Z,102764.91
2023-04-04T13:59:39.475Z,102747.91
2023-04-04T14:04:42.951Z,102744.31
2023-04-04T14:09:46.674Z,102725.66
2023-04-04T14:14:53.108Z,102750.75
2023-04-04T14:19:56.418Z,102733.34
2023-04-04T14:24:59.386Z,102743.31
2023-04-04T14:30:04.434Z,102732.50
2023-04-04T14:35:08.062Z,102732.78
2023-04-04T14:40:12.105Z,102724.06
2023-04-04T14:45:17.799Z,102706.81
2023-04-04T14:50:21.161Z,102715.53
2023-04-04T14:55:24.617Z,102713.00
2023-04-04T15:00:29.524Z,102710.00
2023-04-04T15:05:33.200Z,102718.59
2023-04-04T15:10:36.634Z,102704.66
2023-04-04T15:15:41.304Z,102699.97
2023-04-04T15:20:44.610Z,102695.44
2023-04-04T15:25:47.711Z,102686.84
2023-04-04T15:30:54.277Z,102686.09
2023-04-04T15:35:57.800Z,102679.03
2023-04-04T15:41:00.922Z,102661.28
2023-04-04T15:46:05.964Z,102661.28
2023-04-04T15:51:09.060Z,102659.25
2023-04-04T15:56:13.608Z,102655.25
2023-04-04T16:01:18.273Z,102650.88
2023-04-04T16:06:21.501Z,102645.72
2023-04-04T16:11:25.088Z,102637.63
2023-04-04T16:16:32.774Z,102631.38
2023-04-04T16:21:36.048Z,102631.09
2023-04-04T16:26:39.671Z,102629.09
2023-04-04T16:31:44.204Z,102632.19
2023-04-04T16:36:47.637Z,102635.50
2023-04-04T16:41:56.023Z,102620.63
2023-04-04T16:47:00.502Z,102620.56
2023-04-04T16:52:03.854Z,102614.13
2023-04-04T16:57:07.509Z,102613.00
2023-04-04T17:02:12.208Z,102611.81
2023-04-04T17:07:15.726Z,102604.69
2023-04-04T17:12:18.911Z,102598.50
2023-04-04T17:17:23.471Z,102604.91
2023-04-04T17:22:26.764Z,102615.97
2023-04-04T17:27:30.809Z,102615.50
2023-04-04T17:32:35.564Z,102610.25
2023-04-04T17:37:38.926Z,102609.19
2023-04-04T17:42:42.097Z,102601.53
2023-04-04T17:47:47.157Z,102607.84
2023-04-04T17:52:50.170Z,102600.69
2023-04-04T17:57:53.231Z,102602.41
2023-04-04T18:02:58.251Z,102594.59
2023-04-04T18:08:05.193Z,102606.56
2023-04-04T18:13:08.504Z,102610.91
2023-04-04T18:18:21.328Z,102616.00
2023-04-04T18:23:26.283Z,102597.03
2023-04-04T18:28:29.634Z,102610.81
2023-04-04T18:33:35.123Z,102601.28
2023-04-04T18:38:38.178Z,102618.13
2023-04-04T18:43:41.763Z,102613.34
2023-04-04T18:48:46.609Z,102623.09
2023-04-04T18:53:52.219Z,102618.78
2023-04-04T18:58:55.486Z,102619.56
2023-04-04T19:04:03.970Z,102635.56
2023-04-04T19:09:08.654Z,102643.59
2023-04-04T19:14:12.015Z,102640.75
2023-04-04T19:19:16.829Z,102646.41
2023-04-04T19:24:21.530Z,102653.16
2023-04-04T19:29:24.688Z,102657.16
2023-04-04T19:34:30.678Z,102662.56
2023-04-04T19:39:36.710Z,102668.88
2023-04-04T19:44:41.531Z,102662.13
2023-04-04T19:49:46.184Z,102652.88
2023-04-04T19:54:50.182Z,102649.66
2023-04-04T20:00:03.192Z,102639.34
2023-04-04T20:05:55.848Z,102623.50
2023-04-04T20:11:02.501Z,102631.22
2023-04-04T20:16:08.078Z,102626.91
2023-04-04T20:21:16.135Z,102633.09
2023-04-04T20:26:42.513Z,102629.69
2023-04-04T20:31:47.914Z,102623.16
2023-04-04T20:36:55.450Z,102619.13
2023-04-04T20:41:58.514Z,102623.03
2023-04-04T20:47:01.952Z,102617.97
2023-04-04T20:52:08.107Z,102619.25
2023-04-04T20:57:14.481Z,102628.00
2023-04-04T21:02:19.993Z,102637.66
2023-04-04T21:07:36.833Z,102628.91
2023-04-04T21:12:40.042Z,102617.44
2023-04-04T21:17:43.677Z,102622.25
2023-04-04T21:22:51.177Z,102614.81
2023-04-04T21:27:56.861Z,102613.78
2023-04-04T21:33:00.012Z,102609.50
2023-04-04T21:38:07.068Z,102598.94
2023-04-04T21:43:10.616Z,102604.00
2023-04-04T21:48:13.758Z,102593.59
2023-04-04T21:53:18.459Z,102598.16
2023-04-04T21:58:21.653Z,102589.28
2023-04-04T22:03:24.618Z,102592.66
2023-04-04T22:08:28.922Z,102589.03
2023-04-04T22:13:33.405Z,102583.44
2023-04-04T22:18:42.789Z,102564.53
2023-04-04T22:23:47.282Z,102585.75
2023-04-04T22:29:01.337Z,102576.22
2023-04-04T22:34:04.412Z,102577.00
2023-04-04T22:39:09.505Z,102575.91
2023-04-04T22:44:12.703Z,102580.06
2023-04-04T22:49:16.433Z,102575.22
2023-04-04T22:54:20.897Z,102567.25
2023-04-04T22:59:24.075Z,102573.75
2023-04-04T23:04:28.013Z,102568.75
2023-04-04T23:09:32.500Z,102566.13
2023-04-04T23:14:39.131Z,102571.53
2023-04-04T23:19:42.369Z,102566.56
2023-04-04T23:24:46.735Z,102564.81
2023-04-04T23:29:52.128Z,102557.13
2023-04-04T23:34:55.167Z,102565.41
2023-04-04T23:40:01.186Z,102558.88
2023-04-04T23:45:05.140Z,102558.19
2023-04-04T23:50:08.915Z,102553.06
2023-04-04T23:55:13.562Z,102556.63
